Time;durP1;ratioP1;P1;durP2;ratioP2;P2;SDS_P1;SDS_P2;PMS_P1;PMS_P2;Temp;Humidity;BMP_temperature;BMP_pressure;BME280_temperature;BME280_humidity;BME280_pressure;Samples;Min_cycle;Max_cycle;Signal;HPM_P1;HPM_P2
2022/04/16 00:00:54;;;;;;;11.45;8.48;;;;;;;7.06;63.14;93438.56;5111619;28;20016;-38
2022/04/16 00:03:21;;;;;;;13.32;8.65;;;;;;;6.89;63.23;93419.66;5111374;28;20051;-38
2022/04/16 00:05:48;;;;;;;11.15;8.07;;;;;;;6.98;63.54;93440.47;5111228;28;20023;-38
2022/04/16 00:08:15;;;;;;;13.15;8.65;;;;;;;6.97;63.61;93433.50;5109955;28;20104;-38
2022/04/16 00:10:40;;;;;;;12.55;8.48;;;;;;;6.74;64.44;93435.13;5110709;28;20020;-38
2022/04/16 00:13:06;;;;;;;11.52;7.68;;;;;;;6.68;64.36;93435.25;5109110;28;20103;-38
2022/04/16 00:15:31;;;;;;;12.45;7.80;;;;;;;6.64;64.31;93437.56;5090766;28;20081;-38
2022/04/16 00:17:57;;;;;;;7.00;5.93;;;;;;;6.66;64.27;93437.03;5090698;28;20024;-38
2022/04/16 00:20:25;;;;;;;9.75;5.88;;;;;;;6.80;64.31;93441.25;5090634;28;20084;-39
2022/04/16 00:22:53;;;;;;;7.68;6.55;;;;;;;6.99;63.85;93436.47;5090959;28;20040;-38
2022/04/16 00:25:19;;;;;;;6.68;5.65;;;;;;;6.66;64.75;93437.78;5090644;28;20026;-38
2022/04/16 00:27:46;;;;;;;5.80;4.93;;;;;;;6.86;63.95;93428.94;5090790;28;20024;-38
2022/04/16 00:30:12;;;;;;;7.18;6.32;;;;;;;7.11;63.86;93435.00;5090410;28;20095;-38
2022/04/16 00:32:37;;;;;;;8.55;6.40;;;;;;;6.81;64.12;93442.75;5090519;28;20031;-38
2022/04/16 00:35:03;;;;;;;7.97;6.22;;;;;;;6.69;64.47;93433.97;5090339;28;20031;-38
2022/04/16 00:37:29;;;;;;;12.15;7.75;;;;;;;6.93;63.75;93427.56;5090732;28;20026;-38
2022/04/16 00:39:54;;;;;;;9.23;6.68;;;;;;;6.93;64.45;93432.34;5098230;28;20016;-38
2022/04/16 00:42:19;;;;;;;9.48;5.43;;;;;;;6.72;64.38;93435.66;5110688;28;20432;-38
2022/04/16 00:44:45;;;;;;;10.07;5.13;;;;;;;6.65;64.56;93427.31;5110501;28;20028;-38
2022/04/16 00:47:12;;;;;;;7.05;5.35;;;;;;;6.44;64.90;93429.88;5110577;28;20031;-37
2022/04/16 00:49:37;;;;;;;7.80;5.63;;;;;;;6.37;65.58;93421.53;5110895;28;20015;-38
2022/04/16 00:52:04;;;;;;;10.88;6.88;;;;;;;6.37;65.76;93422.25;5110746;28;20459;-38
2022/04/16 00:54:29;;;;;;;10.25;7.35;;;;;;;6.54;65.48;93419.28;5109294;28;20028;-38
2022/04/16 00:56:55;;;;;;;8.63;6.70;;;;;;;6.29;65.96;93412.44;5109349;28;20031;-38
2022/04/16 00:59:20;;;;;;;10.68;7.40;;;;;;;6.44;66.03;93409.94;5110528;28;20115;-38
2022/04/16 01:01:46;;;;;;;9.98;6.65;;;;;;;6.40;65.90;93417.75;5110638;28;20020;-38
2022/04/16 01:04:11;;;;;;;6.80;5.55;;;;;;;6.35;66.08;93421.31;5110128;28;20029;-38
2022/04/16 01:06:38;;;;;;;8.13;5.80;;;;;;;6.29;66.25;93412.44;5108995;28;20024;-38
2022/04/16 01:09:04;;;;;;;9.48;7.05;;;;;;;6.30;65.74;93417.41;5110481;28;20432;-38
2022/04/16 01:11:32;;;;;;;11.40;7.20;;;;;;;6.55;65.04;93415.25;5110453;28;20032;-38
2022/04/16 01:14:01;;;;;;;16.38;8.15;;;;;;;6.50;65.22;93403.09;5108652;28;20031;-38
2022/04/16 01:16:29;;;;;;;;;;;;;;;6.41;65.30;93397.31;5111300;28;20024;-38
2022/04/16 01:18:55;;;;;;;9.85;7.13;;;;;;;6.24;65.19;93394.81;5110308;28;19916;-38
2022/04/16 01:21:21;;;;;;;13.48;8.98;;;;;;;5.93;66.35;93390.06;5110889;28;20032;-38
2022/04/16 01:23:46;;;;;;;10.82;8.82;;;;;;;5.75;67.45;93383.28;5114308;28;20424;-38
2022/04/16 01:26:12;;;;;;;13.80;8.13;;;;;;;6.04;66.96;93387.16;5114667;28;20020;-38
2022/04/16 01:28:38;;;;;;;13.35;8.45;;;;;;;5.96;67.63;93381.53;5114366;28;20027;-38
2022/04/16 01:31:04;;;;;;;10.73;8.13;;;;;;;5.96;67.08;93381.53;5114198;28;20034;-38
2022/04/16 01:33:30;;;;;;;10.93;8.07;;;;;;;5.68;67.00;93374.91;5110632;28;20024;-38
2022/04/16 01:35:56;;;;;;;10.25;6.93;;;;;;;5.68;66.81;93386.63;5093892;28;20035;-38
2022/04/16 01:38:25;;;;;;;8.43;6.45;;;;;;;5.87;66.27;93381.16;5094019;28;20089;-38
2022/04/16 01:40:59;;;;;;;9.07;6.80;;;;;;;5.88;66.49;93383.38;5109149;28;20488;-38
2022/04/16 01:43:25;;;;;;;11.32;8.05;;;;;;;5.91;67.18;93373.38;5114279;28;20093;-38
2022/04/16 01:45:51;;;;;;;12.80;9.23;;;;;;;5.81;67.07;93375.72;5113871;28;20035;-38
2022/04/16 01:48:17;;;;;;;13.18;8.82;;;;;;;5.65;67.56;93379.44;5113925;28;20020;-38
2022/04/16 01:50:43;;;;;;;17.95;8.75;;;;;;;5.48;67.58;93378.91;5114087;27;20034;-38
2022/04/16 01:53:08;;;;;;;17.38;9.18;;;;;;;5.44;68.05;93383.94;5113701;28;20424;-38
2022/04/16 01:55:34;;;;;;;13.80;9.15;;;;;;;5.21;68.11;93377.25;5113717;28;20039;-39
2022/04/16 01:58:00;;;;;;;12.15;8.23;;;;;;;4.78;69.88;93385.44;5114007;28;20031;-38
2022/04/16 02:00:26;;;;;;;12.05;7.68;;;;;;;4.55;70.72;93386.91;5113982;28;20110;-38
2022/04/16 02:02:52;;;;;;;16.20;8.80;;;;;;;4.90;70.40;93381.34;5113977;28;20107;-38
2022/04/16 02:05:17;;;;;;;11.93;9.02;;;;;;;4.89;70.03;93371.66;5113896;27;20023;-38
2022/04/16 02:07:42;;;;;;;14.32;10.25;;;;;;;4.86;69.75;93371.94;5113509;28;20024;-38
2022/04/16 02:10:08;;;;;;;15.68;10.13;;;;;;;5.08;69.35;93372.44;5113494;28;20034;-38
2022/04/16 02:12:37;;;;;;;14.05;8.88;;;;;;;5.24;68.14;93384.47;5113497;28;20028;-38
2022/04/16 02:15:03;;;;;;;10.50;7.32;;;;;;;4.87;68.76;93379.66;5094853;28;20382;-38
2022/04/16 02:17:33;;;;;;;12.27;8.45;;;;;;;4.75;69.10;93383.72;5093001;28;20028;-38
2022/04/16 02:19:59;;;;;;;11.77;9.23;;;;;;;4.92;69.70;93386.28;5092870;28;20036;-38
2022/04/16 02:22:25;;;;;;;12.73;8.73;;;;;;;5.04;69.01;93373.97;5093142;28;20024;-38
2022/04/16 02:24:51;;;;;;;15.20;9.43;;;;;;;5.17;68.60;93371.34;5092863;28;20020;-38
2022/04/16 02:27:16;;;;;;;13.32;9.18;;;;;;;5.23;68.60;93372.00;5092858;28;20031;-38
2022/04/16 02:29:42;;;;;;;17.67;8.75;;;;;;;5.03;68.46;93377.97;5093075;28;20027;-38
2022/04/16 02:32:08;;;;;;;14.82;8.10;;;;;;;5.09;68.26;93370.44;5092892;28;20024;-38
2022/04/16 02:34:33;;;;;;;12.50;8.25;;;;;;;5.09;68.31;93373.91;5091669;28;20404;-38
2022/04/16 02:36:59;;;;;;;10.05;6.97;;;;;;;4.95;67.46;93336.03;5104655;28;20035;-38
2022/04/16 02:39:25;;;;;;;12.05;7.68;;;;;;;4.99;68.42;93370.06;5109600;28;20049;-38
2022/04/16 02:41:50;;;;;;;9.73;6.55;;;;;;;4.93;68.13;93366.63;5092264;28;20051;-38
2022/04/16 02:47:06;;;;;;;9.38;7.55;;;;;;;4.60;68.94;93372.44;5092819;28;20140;-38
2022/04/16 02:49:33;;;;;;;8.15;6.43;;;;;;;4.58;68.85;93372.97;5092786;28;20028;-38
2022/04/16 02:51:59;;;;;;;7.57;6.20;;;;;;;4.74;68.61;93379.53;5092298;28;20035;-38
2022/04/16 02:54:25;;;;;;;9.57;5.97;;;;;;;4.59;68.61;93368.97;5092441;28;20024;-38
2022/04/16 02:56:50;;;;;;;7.93;6.47;;;;;;;4.60;68.97;93375.94;5092253;28;20479;-38
2022/04/16 02:59:16;;;;;;;8.43;6.80;;;;;;;4.72;68.57;93376.53;5092161;28;20081;-38
2022/04/16 03:01:41;;;;;;;12.23;8.05;;;;;;;4.66;69.80;93377.88;5092464;28;20032;-38
2022/04/16 03:04:07;;;;;;;10.52;8.07;;;;;;;4.71;70.13;93377.81;5092266;28;20031;-38
2022/04/16 03:06:32;;;;;;;9.25;7.57;;;;;;;4.37;70.87;93382.13;5092054;28;20024;-38
2022/04/16 03:08:58;;;;;;;9.27;8.15;;;;;;;4.58;70.00;93372.22;5091929;28;20032;-37
2022/04/16 03:11:23;;;;;;;13.10;8.48;;;;;;;4.43;69.68;93339.06;5090765;28;20031;-38
2022/04/16 03:13:48;;;;;;;9.88;7.55;;;;;;;4.45;69.99;93386.50;5091457;28;20035;-38
2022/04/16 03:18:58;;;;;;;6.25;5.57;;;;;;;4.29;68.64;93398.31;5092122;28;20039;-38
2022/04/16 03:21:23;;;;;;;7.47;5.38;;;;;;;4.57;68.76;93398.81;5092060;28;20020;-38
2022/04/16 03:23:49;;;;;;;7.78;5.78;;;;;;;4.68;67.86;93395.22;5091685;28;20020;-38
2022/04/16 03:26:15;;;;;;;8.50;6.03;;;;;;;4.63;68.34;93400.75;5091781;28;20089;-38
2022/04/16 03:28:41;;;;;;;10.30;6.05;;;;;;;4.44;68.73;93395.22;5091672;28;20028;-38
2022/04/16 03:31:06;;;;;;;14.50;8.82;;;;;;;4.18;69.51;93395.66;5091798;28;20024;-38
2022/04/16 03:33:32;;;;;;;14.52;9.15;;;;;;;4.15;68.79;93407.63;5105944;28;20188;-38
2022/04/16 03:35:57;;;;;;;17.13;10.07;;;;;;;4.31;69.89;93393.06;5111722;28;20028;-38
2022/04/16 03:38:23;;;;;;;14.85;9.65;;;;;;;4.31;69.54;93400.56;5112143;28;20034;-38
2022/04/16 03:40:49;;;;;;;15.32;9.13;;;;;;;4.02;70.00;93398.53;5096263;28;20478;-38
2022/04/16 03:43:14;;;;;;;31.70;18.05;;;;;;;4.21;69.49;93400.13;5109253;28;20027;-38
2022/04/16 03:45:40;;;;;;;21.15;13.65;;;;;;;4.04;70.26;93407.72;5111652;28;20456;-37
2022/04/16 03:48:07;;;;;;;25.17;14.55;;;;;;;4.09;69.93;93400.72;5111875;28;20023;-38
2022/04/16 03:50:33;;;;;;;11.35;8.13;;;;;;;4.13;70.21;93407.41;5111622;28;20181;-38
2022/04/16 03:52:59;;;;;;;14.30;10.00;;;;;;;4.09;69.99;93411.66;5111772;28;20103;-38
2022/04/16 04:00:57;;;;;;;14.52;9.63;;;;;;;3.94;71.65;93416.72;5110680;28;20501;-38
2022/04/16 04:03:23;;;;;;;16.30;10.07;;;;;;;3.98;71.01;93420.66;5111623;27;20027;-38
2022/04/16 04:05:49;;;;;;;12.45;9.15;;;;;;;4.01;71.56;93430.56;5111601;28;20015;-38
2022/04/16 04:08:16;;;;;;;23.52;13.40;;;;;;;4.17;70.99;93420.78;5111501;28;20381;-38
2022/04/16 04:10:41;;;;;;;19.35;12.02;;;;;;;4.28;69.16;93434.34;5111357;28;20176;-38
2022/04/16 04:13:07;;;;;;;20.20;13.50;;;;;;;4.35;68.96;93433.81;5108559;28;20512;-38
2022/04/16 04:15:32;;;;;;;24.35;14.00;;;;;;;4.37;68.78;93423.84;5091064;28;20032;-38
2022/04/16 04:17:59;;;;;;;24.00;17.80;;;;;;;4.45;68.69;93432.97;5090898;28;20024;-38
2022/04/16 04:20:25;;;;;;;31.05;20.35;;;;;;;4.49;68.44;93436.19;5090655;28;20107;-37
2022/04/16 04:22:51;;;;;;;35.67;21.65;;;;;;;4.33;69.24;93445.22;5091027;28;20079;-38
2022/04/16 04:25:16;;;;;;;49.33;33.45;;;;;;;4.41;69.06;93440.72;5090531;28;20016;-38
2022/04/16 04:27:42;;;;;;;73.28;44.17;;;;;;;4.44;69.51;93442.41;5090926;28;20024;-38
2022/04/16 04:30:08;;;;;;;36.20;22.15;;;;;;;4.38;70.21;93433.53;5107799;28;20028;-37
2022/04/16 04:32:33;;;;;;;20.23;13.93;;;;;;;4.61;70.23;93445.75;5110719;28;20034;-37
2022/04/16 04:34:59;;;;;;;18.58;11.82;;;;;;;4.89;69.69;93451.00;5110909;28;20024;-37
2022/04/16 04:37:25;;;;;;;14.05;10.43;;;;;;;5.04;69.40;93448.59;5109771;28;20609;-38
2022/04/16 04:39:51;;;;;;;10.10;7.43;;;;;;;5.35;68.39;93450.75;5103346;28;20027;-37
2022/04/16 04:42:24;;;;;;;14.95;9.18;;;;;;;5.31;68.59;93453.03;5090229;28;20071;-38
2022/04/16 04:44:50;;;;;;;19.48;13.00;;;;;;;5.50;68.23;93444.84;5090652;28;20012;-37
2022/04/16 04:47:15;;;;;;;28.20;20.60;;;;;;;5.47;68.04;93443.16;5090634;28;20031;-38
2022/04/16 04:49:41;;;;;;;27.60;21.27;;;;;;;5.67;68.02;93434.44;5090676;28;20023;-38
2022/04/16 04:52:06;;;;;;;21.85;15.52;;;;;;;5.70;68.14;93414.22;5090482;28;20409;-38
2022/04/16 04:54:32;;;;;;;15.73;10.05;;;;;;;6.13;67.58;93431.34;5090494;28;20020;-38
2022/04/16 04:56:57;;;;;;;9.25;7.85;;;;;;;6.24;67.34;93435.19;5089940;28;20451;-38
2022/04/16 04:59:23;;;;;;;11.18;9.05;;;;;;;6.24;65.63;93432.47;5090222;28;20055;-37
2022/04/16 05:01:48;;;;;;;9.68;7.60;;;;;;;6.29;65.78;93431.63;5090444;28;20077;-38
2022/04/16 05:04:14;;;;;;;16.15;12.35;;;;;;;6.39;65.62;93436.19;5090077;28;20541;-38
2022/04/16 05:06:39;;;;;;;24.23;13.90;;;;;;;6.55;65.08;93437.19;5090096;28;20020;-38
2022/04/16 05:09:05;;;;;;;21.98;15.13;;;;;;;6.71;64.79;93438.94;5090288;28;20023;-38
2022/04/16 05:11:31;;;;;;;21.80;15.32;;;;;;;6.80;64.29;93433.03;5090464;28;20034;-38
2022/04/16 05:13:56;;;;;;;31.00;16.10;;;;;;;6.92;64.87;93426.09;5089799;28;20551;-38
2022/04/16 05:16:22;;;;;;;28.10;19.33;;;;;;;7.06;64.82;93432.38;5090427;28;20482;-38
2022/04/16 05:18:47;;;;;;;69.13;40.60;;;;;;;7.35;64.46;93425.81;5089917;28;20497;-38
2022/04/16 05:21:12;;;;;;;109.38;57.10;;;;;;;7.52;64.24;93421.47;5089887;28;20027;-39
2022/04/16 05:23:39;;;;;;;48.70;24.88;;;;;;;7.56;64.73;93421.16;5090297;28;20020;-38
2022/04/16 05:26:07;;;;;;;26.80;15.23;;;;;;;7.60;64.65;93407.84;5104700;28;20500;-38
2022/04/16 05:28:32;;;;;;;17.38;12.50;;;;;;;7.96;65.27;93422.59;5110361;28;20016;-38
2022/04/16 05:30:59;;;;;;;41.03;24.02;;;;;;;8.21;64.66;93423.78;5110241;28;20144;-38
2022/04/16 05:36:09;;;;;;;70.90;38.53;;;;;;;8.99;63.48;93424.69;5101289;28;20433;-38
2022/04/16 05:38:34;;;;;;;41.13;26.67;;;;;;;9.39;61.83;93425.19;5090150;28;20024;-38
2022/04/16 05:41:00;;;;;;;54.63;30.77;;;;;;;9.88;60.60;93425.81;5106421;28;20027;-38
2022/04/16 05:43:26;;;;;;;13.82;10.75;;;;;;;10.18;59.90;93423.19;5110437;28;20098;-38
2022/04/16 05:45:52;;;;;;;13.30;8.60;;;;;;;10.57;59.09;93425.50;5109993;28;20023;-38
2022/04/16 05:48:18;;;;;;;17.73;9.23;;;;;;;10.92;57.91;93421.13;5110140;28;20016;-38
2022/04/16 05:50:44;;;;;;;15.18;10.90;;;;;;;11.21;56.91;93419.69;5110400;28;20023;-38
2022/04/16 05:53:14;;;;;;;13.23;9.57;;;;;;;11.31;55.96;93411.56;5110216;28;20088;-38
2022/04/16 05:55:41;;;;;;;26.23;9.65;;;;;;;11.41;55.99;93418.00;5110080;28;20401;-38
2022/04/16 05:58:07;;;;;;;18.88;9.63;;;;;;;11.75;56.59;93421.09;5109937;28;20076;-38
2022/04/16 06:00:33;;;;;;;14.27;8.07;;;;;;;12.06;55.99;93418.97;5110284;28;20028;-38
2022/04/16 06:02:59;;;;;;;8.73;5.60;;;;;;;12.44;53.61;93421.56;5110177;28;20032;-38
2022/04/16 06:05:25;;;;;;;11.70;5.50;;;;;;;13.19;52.62;93414.84;5110207;28;20111;-39
2022/04/16 06:07:50;;;;;;;6.45;4.68;;;;;;;13.43;49.83;93414.06;5109811;28;20393;-38
2022/04/16 06:10:16;;;;;;;10.98;8.05;;;;;;;13.74;49.11;93401.38;5113036;28;20027;-39
2022/04/16 06:12:41;;;;;;;12.20;7.43;;;;;;;14.54;49.30;93415.47;5113534;28;20050;-38
2022/04/16 06:15:07;;;;;;;6.35;4.93;;;;;;;15.18;47.24;93392.66;5113305;28;20034;-38
2022/04/16 06:17:36;;;;;;;8.02;5.38;;;;;;;16.21;45.55;93403.09;5113460;28;20074;-39
2022/04/16 06:20:06;;;;;;;11.07;5.72;;;;;;;17.20;44.60;93402.47;5113634;28;20035;-39
2022/04/16 06:22:32;;;;;;;5.03;3.90;;;;;;;17.96;40.38;93406.22;5096651;28;20046;-39
2022/04/16 06:24:57;;;;;;;15.45;5.32;;;;;;;18.66;38.25;93408.03;5091847;28;20110;-39
2022/04/16 06:27:22;;;;;;;6.10;4.50;;;;;;;18.59;35.41;93397.78;5091676;28;20036;-39
2022/04/16 06:29:48;;;;;;;5.30;3.15;;;;;;;17.73;35.54;93398.44;5092990;28;20024;-38
2022/04/16 06:32:13;;;;;;;5.45;3.00;;;;;;;18.02;35.95;93395.44;5092749;28;20063;-38
2022/04/16 06:34:39;;;;;;;7.00;3.35;;;;;;;18.45;36.60;93401.75;5092978;28;20028;-39
2022/04/16 06:37:05;;;;;;;5.95;4.47;;;;;;;18.90;36.38;93392.03;5107382;28;20023;-38
2022/04/16 06:39:30;;;;;;;4.53;4.13;;;;;;;19.28;35.42;93397.19;5108539;27;20035;-39
2022/04/16 06:41:56;;;;;;;7.00;3.33;;;;;;;19.75;33.58;93395.13;5092266;28;20075;-38
2022/04/16 06:44:21;;;;;;;8.98;3.83;;;;;;;20.12;32.88;93398.03;5092524;28;20024;-38
2022/04/16 06:46:47;;;;;;;3.97;3.60;;;;;;;20.44;33.24;93397.09;5092809;28;20046;-39
2022/04/16 06:49:12;;;;;;;23.13;14.48;;;;;;;21.20;32.31;93385.88;5092567;28;20043;-39
2022/04/16 06:51:38;;;;;;;17.60;9.73;;;;;;;21.79;30.35;93393.22;5092347;28;20424;-39
2022/04/16 06:54:03;;;;;;;24.55;5.88;;;;;;;22.65;28.03;93390.53;5092438;28;20031;-39
2022/04/16 06:56:29;;;;;;;7.47;4.40;;;;;;;23.41;25.59;93379.38;5092118;28;20078;-39
2022/04/16 06:58:54;;;;;;;4.97;4.00;;;;;;;23.90;25.78;93382.97;5092192;28;20028;-39
2022/04/16 07:01:20;;;;;;;7.32;4.30;;;;;;;24.06;25.54;93383.72;5092489;28;20024;-39
2022/04/16 07:03:45;;;;;;;8.30;5.50;;;;;;;24.77;26.13;93374.03;5092374;28;20024;-39
2022/04/16 07:06:11;;;;;;;12.23;4.25;;;;;;;24.89;23.71;93376.59;5092042;28;20024;-39
2022/04/16 07:08:36;;;;;;;8.57;3.92;;;;;;;24.79;23.05;93374.09;5092020;28;20027;-40
2022/04/16 07:11:02;;;;;;;5.03;3.78;;;;;;;24.42;24.27;93373.97;5092258;28;20024;-39
2022/04/16 07:13:27;;;;;;;7.85;3.83;;;;;;;24.21;26.52;93376.56;5096367;28;20024;-39
2022/04/16 07:15:52;;;;;;;37.75;10.43;;;;;;;23.50;25.85;93379.09;5112490;28;20031;-39
2022/04/16 07:18:18;;;;;;;11.23;4.32;;;;;;;22.72;25.98;93383.84;5099434;28;20089;-39
2022/04/16 07:20:43;;;;;;;9.88;4.38;;;;;;;21.86;28.47;93380.97;5091397;28;20076;-39
2022/04/16 07:23:09;;;;;;;13.20;5.25;;;;;;;21.16;29.74;93368.81;5092002;28;20488;-39
2022/04/16 07:25:35;;;;;;;8.60;4.53;;;;;;;21.03;29.41;93381.44;5092033;28;20024;-38
2022/04/16 07:28:01;;;;;;;5.72;4.40;;;;;;;20.63;30.66;93385.56;5091534;28;20534;-39
2022/04/16 07:30:27;;;;;;;9.98;3.47;;;;;;;20.65;30.21;93379.31;5091586;28;20110;-39
2022/04/16 07:32:53;;;;;;;5.28;3.75;;;;;;;21.43;29.70;93380.06;5091464;28;20038;-38
2022/04/16 07:35:19;;;;;;;5.93;3.83;;;;;;;21.72;27.77;93383.03;5091769;28;20024;-39
2022/04/16 07:37:46;;;;;;;10.25;4.28;;;;;;;23.03;28.65;93379.03;5091552;28;20405;-39
2022/04/16 07:40:12;;;;;;;5.32;3.88;;;;;;;24.44;26.70;93373.31;5101794;28;20031;-39
2022/04/16 07:42:38;;;;;;;5.70;4.78;;;;;;;25.87;24.36;93376.09;5111684;28;20050;-40
2022/04/16 07:45:04;;;;;;;7.50;4.95;;;;;;;26.52;20.53;93379.13;5111906;28;20111;-39
2022/04/16 07:47:29;;;;;;;15.13;8.80;;;;;;;26.78;22.75;93371.53;5111968;27;20020;-40
2022/04/16 07:49:55;;;;;;;14.68;4.80;;;;;;;27.40;22.29;93369.94;5111894;27;20059;-39
2022/04/16 07:52:20;;;;;;;4.95;4.00;;;;;;;27.58;21.78;93367.66;5111464;28;20481;-40
2022/04/16 07:54:46;;;;;;;9.70;4.32;;;;;;;27.64;21.42;93362.16;5111509;28;20024;-39
2022/04/16 07:57:13;;;;;;;38.17;6.72;;;;;;;27.50;21.05;93356.81;5111795;28;20038;-39
2022/04/16 07:59:39;;;;;;;9.35;4.30;;;;;;;26.82;20.43;93360.31;5111784;28;20030;-39
2022/04/16 08:02:04;;;;;;;11.80;4.30;;;;;;;26.78;23.14;93351.69;5111353;28;20098;-39
2022/04/16 08:04:30;;;;;;;9.10;4.75;;;;;;;26.41;21.63;93349.00;5111712;28;20037;-39
2022/04/16 08:06:55;;;;;;;7.30;4.13;;;;;;;26.05;20.86;93348.47;5111564;28;20408;-39
2022/04/16 08:09:21;;;;;;;14.23;6.28;;;;;;;26.20;24.05;93347.59;5111628;28;20400;-40
2022/04/16 08:11:46;;;;;;;4.90;3.85;;;;;;;26.46;22.11;93344.94;5111304;28;20089;-39
2022/04/16 08:14:13;;;;;;;25.27;7.55;;;;;;;27.17;22.82;93348.69;5109025;28;20055;-39
2022/04/16 08:16:38;;;;;;;7.85;4.72;;;;;;;27.21;19.99;93342.41;5111101;28;20023;-39
2022/04/16 08:19:04;;;;;;;5.68;3.90;;;;;;;26.89;20.14;93344.97;5111342;28;20024;-39
2022/04/16 08:21:31;;;;;;;38.08;10.82;;;;;;;26.90;22.62;93338.63;5111066;28;20031;-40
2022/04/16 08:24:04;;;;;;;14.27;6.78;;;;;;;26.91;22.48;93333.69;5111237;28;20051;-39
2022/04/16 08:26:30;;;;;;;7.55;5.10;;;;;;;26.41;20.81;93338.41;5111292;28;20031;-39
2022/04/16 08:28:56;;;;;;;8.45;5.35;;;;;;;26.54;21.48;93331.78;5111228;28;20415;-39
2022/04/16 08:31:21;;;;;;;5.97;5.13;;;;;;;27.09;21.29;93325.03;5110434;28;20028;-40
2022/04/16 08:33:46;;;;;;;6.80;4.65;;;;;;;26.75;19.62;93333.91;5110679;28;20027;-39
2022/04/16 08:36:12;;;;;;;6.43;4.65;;;;;;;26.83;21.69;93331.31;5110820;28;20031;-39
2022/04/16 08:38:37;;;;;;;7.22;4.80;;;;;;;25.92;21.48;93335.28;5111082;28;20019;-39
2022/04/16 08:41:04;;;;;;;8.32;4.88;;;;;;;25.32;21.10;93333.75;5093180;28;20424;-39
2022/04/16 08:43:30;;;;;;;27.33;5.88;;;;;;;24.74;23.90;93332.94;5090683;28;20031;-39
2022/04/16 08:45:56;;;;;;;12.38;6.38;;;;;;;23.86;24.07;93332.78;5089112;28;20024;-39
2022/04/16 08:48:22;;;;;;;18.75;5.95;;;;;;;23.52;23.97;93331.25;5090617;28;20027;-39
2022/04/16 08:50:48;;;;;;;7.22;5.13;;;;;;;23.32;24.95;93327.53;5089085;28;20052;-39
2022/04/16 08:53:15;;;;;;;14.63;5.90;;;;;;;22.63;25.18;93332.09;5090143;28;20031;-38
2022/04/16 08:55:40;;;;;;;13.25;5.90;;;;;;;22.33;26.44;93325.69;5090496;28;20024;-38
2022/04/16 08:58:06;;;;;;;9.02;5.60;;;;;;;22.70;25.51;93319.03;5096949;28;20432;-38
2022/04/16 09:00:31;;;;;;;18.63;8.50;;;;;;;23.24;27.12;93315.88;5108448;28;20027;-39
2022/04/16 09:02:59;;;;;;;9.32;5.28;;;;;;;23.44;25.35;93324.53;5091923;28;20036;-39
2022/04/16 09:05:26;;;;;;;11.45;6.65;;;;;;;24.27;24.62;93317.56;5090302;28;20058;-39
2022/04/16 09:07:55;;;;;;;15.80;7.20;;;;;;;24.88;22.70;93315.84;5089993;28;20050;-39
2022/04/16 09:10:21;;;;;;;9.23;6.68;;;;;;;24.71;24.01;93308.09;5098820;28;20027;-39
2022/04/16 09:12:51;;;;;;;21.90;11.25;;;;;;;24.67;24.92;93316.38;5110684;28;20107;-39
2022/04/16 09:15:17;;;;;;;8.73;4.75;;;;;;;24.53;22.42;93307.34;5110379;28;20425;-40
2022/04/16 09:17:42;;;;;;;7.45;4.75;;;;;;;24.69;22.49;93302.34;5109275;28;20043;-39
2022/04/16 09:20:12;;;;;;;8.13;4.35;;;;;;;24.22;23.04;93305.38;5110502;28;20019;-39
2022/04/16 09:22:39;;;;;;;11.52;4.80;;;;;;;24.60;25.65;93301.28;5110650;28;20024;-39
2022/04/16 09:25:15;;;;;;;7.65;4.40;;;;;;;24.70;21.09;93300.97;5110115;28;20023;-39
2022/04/16 09:27:43;;;;;;;7.72;4.97;;;;;;;24.97;23.81;93306.28;5110266;28;20522;-39
2022/04/16 09:30:09;;;;;;;6.63;3.85;;;;;;;24.98;22.52;93281.59;5108895;28;20107;-39
2022/04/16 09:32:44;;;;;;;7.72;3.95;;;;;;;25.48;22.00;93297.63;5108551;28;20028;-39
2022/04/16 09:35:31;;;;;;;7.38;3.60;;;;;;;25.17;21.88;93297.84;5107794;28;20114;-39
2022/04/16 09:37:58;;;;;;;6.20;3.58;;;;;;;25.46;21.88;93291.91;5098694;28;20065;-39
2022/04/16 09:40:29;;;;;;;6.97;3.85;;;;;;;25.74;22.10;93292.19;5103274;28;20110;-39
2022/04/16 09:42:56;;;;;;;6.07;3.58;;;;;;;25.97;22.65;93285.91;5103797;28;20036;-39
2022/04/16 09:45:21;;;;;;;5.65;3.40;;;;;;;25.73;22.17;93282.28;5107230;28;20420;-39
2022/04/16 09:47:49;;;;;;;5.80;3.42;;;;;;;25.30;21.71;93277.88;5112678;28;20030;-39
2022/04/16 09:50:17;;;;;;;5.15;4.13;;;;;;;25.41;23.44;93279.69;5112485;28;20035;-39
2022/04/16 09:52:43;;;;;;;25.77;4.65;;;;;;;25.45;22.63;93265.75;5112539;28;20407;-39
2022/04/16 09:55:09;;;;;;;7.07;3.28;;;;;;;24.74;23.81;93279.31;5112427;28;20028;-39
2022/04/16 09:57:38;;;;;;;4.75;2.88;;;;;;;24.45;24.28;93287.28;5112784;28;20032;-39
2022/04/16 10:00:04;;;;;;;16.63;3.88;;;;;;;24.47;23.69;93284.53;5111718;28;20047;-38
2022/04/16 10:02:31;;;;;;;9.90;3.08;;;;;;;24.15;23.97;93281.13;5103927;28;20027;-39
2022/04/16 10:04:58;;;;;;;3.00;2.35;;;;;;;23.77;24.20;93285.88;5113664;28;20023;-39
2022/04/16 10:07:24;;;;;;;7.00;2.83;;;;;;;23.33;25.33;93279.03;5111861;28;20497;-39
2022/04/16 10:09:53;;;;;;;5.88;2.78;;;;;;;23.19;25.77;93280.47;5112528;28;20031;-38
2022/04/16 10:14:55;;;;;;;4.03;2.70;;;;;;;22.90;25.22;93275.63;5112165;28;20034;-39
2022/04/16 10:17:35;;;;;;;7.32;2.15;;;;;;;22.63;25.50;93277.88;5113464;28;20049;-40
2022/04/16 10:20:11;;;;;;;2.47;2.22;;;;;;;22.21;26.79;93268.13;5112943;28;20106;-39
2022/04/16 10:22:37;;;;;;;5.28;2.10;;;;;;;22.16;25.92;93274.91;5113674;28;20024;-39
2022/04/16 10:25:04;;;;;;;5.78;2.65;;;;;;;22.02;26.47;93274.22;5113233;28;20027;-39
2022/04/16 10:27:31;;;;;;;4.00;2.67;;;;;;;21.87;25.96;93275.63;5113167;28;20053;-38
2022/04/16 10:30:02;;;;;;;4.45;2.45;;;;;;;22.27;26.36;93271.94;5113445;28;20020;-39
2022/04/16 10:32:38;;;;;;;6.50;2.15;;;;;;;22.74;26.22;93269.25;5113427;28;20034;-39
2022/04/16 10:35:05;;;;;;;4.15;3.25;;;;;;;22.69;28.05;93270.44;5113336;28;20039;-39
2022/04/16 10:37:42;;;;;;;7.57;3.67;;;;;;;23.07;27.09;93268.63;5112090;28;20462;-39
2022/04/16 10:40:13;;;;;;;4.05;2.70;;;;;;;23.37;26.41;93263.66;5103469;28;20455;-39
2022/04/16 10:42:46;;;;;;;4.93;2.63;;;;;;;23.42;25.67;93268.84;5092406;28;20048;-39
2022/04/16 10:45:12;;;;;;;11.57;6.78;;;;;;;23.85;28.43;93263.63;5092767;28;20420;-39
2022/04/16 10:47:41;;;;;;;7.00;4.93;;;;;;;23.87;26.57;93257.34;5092563;28;20031;-39
2022/04/16 10:50:19;;;;;;;2.78;2.30;;;;;;;24.00;24.98;93259.31;5092285;28;20024;-38
2022/04/16 10:52:57;;;;;;;8.03;2.40;;;;;;;24.16;26.07;93253.63;5092474;28;20046;-39
2022/04/16 10:55:31;;;;;;;8.60;4.30;;;;;;;24.28;24.90;93260.50;5091777;28;20458;-39
2022/04/16 10:57:59;;;;;;;3.20;2.25;;;;;;;24.42;23.17;93254.69;5092516;28;20032;-39
2022/04/16 11:00:34;;;;;;;;;;;;;;;23.98;23.80;93248.69;5092842;28;20107;-39
2022/04/16 11:03:30;;;;;;;2.15;1.83;;;;;;;23.69;25.26;93248.16;5101910;28;19974;-39
2022/04/16 11:06:07;;;;;;;3.25;1.70;;;;;;;23.91;25.04;93241.31;5103792;28;20120;-39
2022/04/16 11:08:37;;;;;;;4.35;2.10;;;;;;;23.64;26.83;93252.16;5112521;28;20472;-39
2022/04/16 11:11:03;;;;;;;7.63;1.98;;;;;;;24.04;26.44;93248.19;5112653;28;20031;-39
2022/04/16 11:13:37;;;;;;;2.05;1.73;;;;;;;23.95;25.97;93235.84;5106647;28;20485;-39
2022/04/16 11:16:04;;;;;;;4.72;1.70;;;;;;;23.71;24.86;93240.50;5091823;28;20513;-39
2022/04/16 11:18:44;;;;;;;18.50;3.10;;;;;;;24.06;24.29;93240.56;5091824;28;20028;-39
2022/04/16 11:21:18;;;;;;;3.10;1.90;;;;;;;23.64;23.36;93230.34;5091722;28;20023;-39
2022/04/16 11:23:45;;;;;;;13.95;2.35;;;;;;;23.24;24.83;93234.19;5092207;28;20032;-39
2022/04/16 11:34:43;;;;;;;2.97;2.00;;;;;;;23.71;26.33;93232.06;5091614;28;20047;-39
2022/04/16 11:37:09;;;;;;;1.52;1.42;;;;;;;23.99;24.71;93230.41;5090572;28;20028;-39
2022/04/16 11:39:34;;;;;;;2.40;1.80;;;;;;;24.25;25.95;93224.38;5096622;28;20040;-39
2022/04/16 11:42:07;;;;;;;6.22;2.05;;;;;;;24.27;25.27;93219.56;5111576;28;20524;-39
2022/04/16 11:44:43;;;;;;;2.15;1.63;;;;;;;24.35;23.98;93205.03;5111820;28;20518;-39
2022/04/16 11:47:09;;;;;;;2.90;2.03;;;;;;;24.05;24.62;93210.94;5111978;28;20027;-39
2022/04/16 11:49:36;;;;;;;2.83;1.70;;;;;;;23.84;26.02;93205.81;5111994;28;20058;-39
2022/04/16 11:52:02;;;;;;;5.50;1.77;;;;;;;23.56;26.24;93187.72;5101542;28;20501;-39
2022/04/16 11:54:31;;;;;;;4.22;2.08;;;;;;;23.49;28.85;93191.66;5089979;28;20039;-39